createdAt,value
2022-10-15T00:02:04.598Z,-1.00
2022-10-15T00:04:34.283Z,-1.00
2022-10-15T00:07:04.219Z,-1.00
2022-10-15T00:09:33.865Z,-1.00
2022-10-15T00:12:03.590Z,-1.00
2022-10-15T00:14:33.244Z,-1.00
2022-10-15T00:17:02.938Z,-1.00
2022-10-15T00:19:32.863Z,-1.00
2022-10-15T00:22:03.240Z,-1.00
2022-10-15T00:24:32.949Z,-1.00
2022-10-15T00:27:02.704Z,-1.00
2022-10-15T00:29:32.629Z,-1.00
2022-10-15T00:32:02.277Z,-1.00
2022-10-15T00:34:33.213Z,-1.00
2022-10-15T00:37:02.987Z,-1.00
2022-10-15T00:39:32.898Z,-1.00
2022-10-15T00:42:02.552Z,-1.00
2022-10-15T00:44:49.727Z,-1.00
2022-10-15T00:47:20.146Z,-1.00
2022-10-15T00:49:50.567Z,-1.00
2022-10-15T00:52:21.973Z,-1.00
2022-10-15T00:54:53.045Z,-1.00
2022-10-15T00:57:22.769Z,-1.00
2022-10-15T00:59:52.793Z,-1.00
2022-10-15T01:02:22.688Z,-1.00
2022-10-15T01:04:53.788Z,-1.00
2022-10-15T01:07:23.531Z,-1.00
2022-10-15T01:09:53.600Z,-1.00
2022-10-15T01:12:25.728Z,-1.00
2022-10-15T01:15:00.497Z,-1.00
2022-10-15T01:17:31.842Z,-1.00
2022-10-15T01:20:15.496Z,-1.00
2022-10-15T01:22:47.486Z,-1.00
2022-10-15T01:25:20.573Z,-1.00
2022-10-15T01:27:52.384Z,-1.00
2022-10-15T01:30:23.610Z,-1.00
2022-10-15T01:33:02.099Z,-1.00
2022-10-15T01:35:33.841Z,-1.00
2022-10-15T01:38:04.896Z,-1.00
2022-10-15T01:40:35.526Z,-1.00
2022-10-15T01:43:06.287Z,-1.00
2022-10-15T01:45:47.811Z,-1.00
2022-10-15T01:48:28.238Z,-1.00
2022-10-15T01:51:02.681Z,-1.00
2022-10-15T01:53:34.498Z,-1.00
2022-10-15T01:56:05.812Z,-1.00
2022-10-15T01:58:35.849Z,-1.00
2022-10-15T02:01:05.714Z,-1.00
2022-10-15T02:03:45.962Z,-1.00
2022-10-15T02:06:17.498Z,-1.00
2022-10-15T02:08:50.165Z,-1.00
2022-10-15T02:11:19.953Z,-1.00
2022-10-15T02:13:52.865Z,-1.00
2022-10-15T02:16:24.425Z,-1.00
2022-10-15T02:18:56.556Z,-1.00
2022-10-15T02:21:28.071Z,-1.00
2022-10-15T02:23:58.226Z,-1.00
2022-10-15T02:26:29.251Z,-1.00
2022-10-15T02:28:59.959Z,-1.00
2022-10-15T02:31:30.745Z,-1.00
2022-10-15T02:34:02.877Z,-1.00
2022-10-15T02:36:32.646Z,-1.00
2022-10-15T02:39:03.674Z,-1.00
2022-10-15T02:53:47.239Z,78.67
2022-10-15T02:56:18.916Z,80.80
2022-10-15T02:58:49.097Z,80.59
2022-10-15T03:01:20.815Z,80.24
2022-10-15T03:03:53.174Z,80.32
2022-10-15T03:06:25.214Z,80.18
2022-10-15T03:08:55.300Z,79.50
2022-10-15T03:11:27.580Z,79.48
2022-10-15T03:13:57.868Z,79.00
2022-10-15T03:16:29.443Z,79.13
2022-10-15T03:19:00.959Z,79.44
2022-10-15T03:21:32.642Z,79.42
2022-10-15T03:24:10.452Z,79.07
2022-10-15T03:26:42.024Z,78.74
2022-10-15T03:29:13.549Z,78.60
2022-10-15T03:32:00.104Z,78.95
2022-10-15T03:34:29.790Z,79.54
2022-10-15T03:37:01.639Z,80.23
2022-10-15T03:39:34.714Z,80.01
2022-10-15T03:42:08.653Z,80.81
2022-10-15T03:44:43.209Z,81.61
2022-10-15T03:47:17.386Z,81.58
2022-10-15T03:49:51.257Z,81.45
2022-10-15T03:52:23.813Z,81.54
2022-10-15T03:54:55.756Z,82.17
2022-10-15T03:57:29.002Z,81.68
2022-10-15T04:00:05.657Z,82.48
2022-10-15T04:02:43.576Z,82.30
2022-10-15T04:05:24.616Z,81.84
2022-10-15T04:07:59.598Z,81.35
2022-10-15T04:10:32.155Z,80.70
2022-10-15T04:13:04.022Z,80.22
2022-10-15T04:15:37.374Z,82.43
2022-10-15T04:18:10.205Z,82.21
2022-10-15T04:20:43.067Z,82.71
2022-10-15T04:23:17.219Z,82.83
2022-10-15T04:26:03.052Z,83.54
2022-10-15T04:28:34.821Z,83.51
2022-10-15T04:31:06.952Z,83.48
2022-10-15T04:33:38.836Z,83.36
2022-10-15T04:39:01.055Z,82.35
2022-10-15T04:41:44.760Z,82.09
2022-10-15T04:44:36.935Z,81.80
2022-10-15T04:47:08.761Z,82.10
2022-10-15T04:49:54.281Z,81.75
2022-10-15T04:52:38.924Z,81.53
2022-10-15T04:55:13.502Z,81.46
2022-10-15T04:57:45.378Z,81.25
2022-10-15T05:00:16.104Z,80.97
2022-10-15T05:02:47.630Z,81.07
2022-10-15T05:05:24.430Z,80.65
2022-10-15T05:08:04.626Z,80.40
2022-10-15T05:10:42.071Z,80.10
2022-10-15T05:13:14.323Z,79.69
2022-10-15T05:15:46.850Z,79.26
2022-10-15T05:18:18.689Z,78.79
2022-10-15T05:20:54.612Z,78.26
2022-10-15T05:23:27.225Z,77.55
2022-10-15T05:26:09.341Z,77.12
2022-10-15T05:28:40.890Z,76.93
2022-10-15T05:31:18.336Z,76.39
2022-10-15T05:33:50.225Z,75.71
2022-10-15T05:36:24.239Z,75.94
2022-10-15T05:39:00.048Z,76.22
2022-10-15T05:41:32.132Z,76.11
2022-10-15T05:44:04.001Z,75.82
2022-10-15T05:46:37.625Z,75.13
2022-10-15T05:49:09.822Z,74.39
2022-10-15T05:55:04.653Z,73.88
2022-10-15T05:57:36.435Z,74.35
2022-10-15T06:00:11.668Z,74.41
2022-10-15T06:02:46.010Z,74.57
2022-10-15T06:05:17.984Z,74.40
2022-10-15T06:07:47.825Z,74.43
2022-10-15T06:10:19.640Z,73.87
2022-10-15T06:12:52.143Z,73.16
2022-10-15T06:15:23.770Z,71.81
2022-10-15T06:17:56.710Z,69.98
2022-10-15T06:20:28.443Z,70.08
2022-10-15T06:23:03.484Z,68.50
2022-10-15T06:25:35.568Z,68.21
2022-10-15T06:28:05.809Z,66.94
2022-10-15T06:30:46.066Z,65.93
2022-10-15T06:33:17.546Z,65.13
2022-10-15T06:35:49.195Z,63.80
2022-10-15T06:38:21.313Z,63.82
2022-10-15T06:40:53.317Z,63.89
2022-10-15T06:43:25.158Z,62.72
2022-10-15T06:45:57.207Z,61.65
2022-10-15T06:48:29.248Z,62.23
2022-10-15T06:51:02.924Z,62.33
2022-10-15T06:53:34.690Z,62.11
2022-10-15T06:56:07.501Z,60.86
2022-10-15T06:58:44.725Z,59.84
2022-10-15T07:01:17.458Z,60.03
2022-10-15T07:03:51.586Z,59.22
2022-10-15T07:06:23.381Z,58.74
2022-10-15T07:08:53.264Z,57.23
2022-10-15T07:11:25.065Z,56.12
2022-10-15T07:13:57.819Z,55.56
2022-10-15T07:16:29.548Z,54.47
2022-10-15T07:18:59.773Z,54.21
2022-10-15T07:21:31.660Z,53.38
2022-10-15T07:24:01.585Z,52.00
2022-10-15T07:26:33.179Z,49.62
2022-10-15T07:29:07.104Z,50.21
2022-10-15T07:31:39.190Z,50.90
2022-10-15T07:34:10.797Z,50.60
2022-10-15T07:36:42.871Z,50.65
2022-10-15T07:39:14.695Z,50.06
2022-10-15T07:41:46.746Z,49.06
2022-10-15T07:44:16.538Z,48.58
2022-10-15T07:46:48.283Z,47.33
2022-10-15T07:49:19.702Z,47.64
2022-10-15T07:51:51.464Z,47.87
2022-10-15T07:54:23.273Z,47.27
2022-10-15T07:56:54.835Z,47.18
2022-10-15T07:59:26.790Z,46.28
2022-10-15T08:01:59.268Z,45.16
2022-10-15T08:04:29.276Z,43.99
2022-10-15T08:07:01.711Z,44.43
2022-10-15T08:09:33.556Z,44.90
2022-10-15T08:12:07.258Z,43.44
2022-10-15T08:14:40.651Z,42.56
2022-10-15T08:17:12.194Z,42.02
2022-10-15T08:19:43.911Z,42.70
2022-10-15T08:22:15.376Z,42.57
2022-10-15T08:24:46.050Z,42.08
2022-10-15T08:27:17.919Z,41.81
2022-10-15T08:29:51.891Z,39.40
2022-10-15T08:32:23.817Z,38.66
2022-10-15T08:34:55.851Z,38.56
2022-10-15T08:37:26.169Z,38.37
2022-10-15T08:39:58.033Z,38.67
2022-10-15T08:42:29.906Z,38.89
2022-10-15T08:45:02.781Z,39.07
2022-10-15T08:47:36.768Z,39.22
2022-10-15T08:50:14.028Z,39.16
2022-10-15T08:52:46.533Z,38.67
2022-10-15T08:55:19.304Z,38.05
2022-10-15T08:57:53.412Z,36.43
2022-10-15T09:00:25.773Z,36.27
2022-10-15T09:03:00.428Z,36.23
2022-10-15T09:05:35.966Z,34.97
2022-10-15T09:08:14.055Z,35.35
2022-10-15T09:10:47.932Z,35.85
2022-10-15T09:13:25.177Z,35.86
2022-10-15T09:15:57.770Z,36.20
2022-10-15T09:18:30.785Z,36.06
2022-10-15T09:21:02.448Z,36.39
2022-10-15T09:23:35.976Z,36.37
2022-10-15T09:26:10.515Z,36.53
2022-10-15T09:28:45.032Z,36.41
2022-10-15T09:31:18.692Z,36.38
2022-10-15T09:33:52.213Z,36.45
2022-10-15T09:36:36.649Z,36.06
2022-10-15T09:39:17.019Z,35.96
2022-10-15T09:41:53.966Z,36.98
2022-10-15T09:44:26.077Z,37.15
2022-10-15T09:46:57.707Z,35.91
2022-10-15T09:49:34.002Z,35.94
2022-10-15T09:52:10.271Z,36.41
2022-10-15T09:54:44.583Z,36.26
2022-10-15T09:57:16.270Z,36.05
2022-10-15T09:59:57.294Z,35.70
2022-10-15T10:02:29.454Z,35.80
2022-10-15T10:05:02.339Z,35.65
2022-10-15T10:07:36.475Z,35.10
2022-10-15T10:10:09.274Z,35.40
2022-10-15T10:12:40.907Z,35.10
2022-10-15T10:15:30.245Z,35.56
2022-10-15T10:18:02.093Z,35.04
2022-10-15T10:20:33.798Z,35.28
2022-10-15T10:23:05.419Z,34.56
2022-10-15T10:25:39.283Z,34.79
2022-10-15T10:28:18.446Z,34.73
2022-10-15T10:31:03.888Z,34.51
2022-10-15T10:33:38.283Z,34.82
2022-10-15T10:36:19.804Z,35.33
2022-10-15T10:38:59.915Z,35.61
2022-10-15T10:41:55.008Z,35.85
2022-10-15T10:44:30.939Z,35.72
2022-10-15T10:47:10.487Z,35.55
2022-10-15T10:49:43.184Z,35.95
2022-10-15T10:52:25.043Z,35.67
2022-10-15T10:55:01.003Z,34.95
2022-10-15T10:57:40.919Z,34.85
2022-10-15T11:00:16.339Z,35.27
2022-10-15T11:02:50.367Z,34.58
2022-10-15T11:05:21.362Z,34.36
2022-10-15T11:07:55.394Z,34.31
2022-10-15T11:10:29.544Z,33.89
2022-10-15T11:20:30.553Z,32.17
2022-10-15T11:23:13.062Z,32.04
2022-10-15T11:25:46.950Z,32.29
2022-10-15T11:28:32.213Z,32.17
2022-10-15T11:31:08.976Z,32.04
2022-10-15T11:33:49.191Z,31.45
2022-10-15T11:36:33.227Z,31.62
2022-10-15T11:39:17.171Z,31.51
2022-10-15T11:41:51.918Z,31.44
2022-10-15T11:44:33.465Z,31.05
2022-10-15T11:47:12.970Z,30.76
2022-10-15T11:49:49.169Z,31.01
2022-10-15T11:52:31.151Z,30.70
2022-10-15T11:55:06.070Z,30.36
2022-10-15T11:57:37.871Z,30.34
2022-10-15T12:00:18.760Z,30.43
2022-10-15T12:02:52.122Z,30.33
2022-10-15T12:05:28.096Z,30.47
2022-10-15T12:07:59.691Z,30.27
2022-10-15T12:10:40.669Z,30.24
2022-10-15T12:13:13.913Z,29.59
2022-10-15T12:15:49.376Z,29.71
2022-10-15T12:18:24.749Z,29.71
2022-10-15T12:20:58.884Z,29.90
2022-10-15T12:23:43.097Z,29.77
2022-10-15T12:26:34.175Z,29.77
2022-10-15T12:29:07.875Z,30.66
2022-10-15T12:31:49.904Z,31.14
2022-10-15T12:34:34.316Z,31.42
2022-10-15T12:37:09.640Z,31.67
2022-10-15T12:39:51.840Z,32.27
2022-10-15T12:42:27.373Z,32.64
2022-10-15T12:44:58.993Z,32.57
2022-10-15T12:47:51.681Z,31.85
2022-10-15T12:50:23.991Z,31.71
2022-10-15T12:53:00.395Z,32.28
2022-10-15T12:55:36.665Z,32.52
2022-10-15T12:58:30.959Z,32.23
2022-10-15T13:01:09.088Z,32.01
2022-10-15T13:03:42.590Z,31.71
2022-10-15T13:06:23.785Z,31.32
2022-10-15T13:08:56.873Z,31.49
2022-10-15T13:11:31.214Z,32.17
2022-10-15T13:14:11.050Z,32.35
2022-10-15T13:16:45.267Z,32.34
2022-10-15T13:19:22.014Z,32.07
2022-10-15T13:21:58.886Z,32.01
2022-10-15T13:24:40.891Z,32.01
2022-10-15T13:27:21.797Z,31.97
2022-10-15T13:30:01.378Z,31.54
2022-10-15T13:32:33.996Z,31.13
2022-10-15T13:35:10.878Z,31.29
2022-10-15T13:37:43.510Z,31.53
2022-10-15T13:40:22.306Z,31.87
2022-10-15T13:43:03.607Z,32.08
2022-10-15T13:45:35.138Z,32.45
2022-10-15T13:48:12.143Z,32.79
2022-10-15T13:50:43.725Z,33.05
2022-10-15T13:53:18.540Z,33.05
2022-10-15T13:55:50.969Z,33.19
2022-10-15T13:58:26.494Z,33.33
2022-10-15T14:01:01.362Z,33.35
2022-10-15T14:03:33.999Z,33.23
2022-10-15T14:06:16.063Z,33.09
2022-10-15T14:08:47.681Z,33.38
2022-10-15T14:11:19.231Z,33.48
2022-10-15T14:13:51.524Z,33.50
2022-10-15T14:16:25.864Z,33.77
2022-10-15T14:18:58.614Z,34.33
2022-10-15T14:21:32.826Z,34.67
2022-10-15T14:24:08.512Z,35.09
2022-10-15T14:26:40.123Z,35.36
2022-10-15T14:29:18.678Z,35.63
2022-10-15T14:31:50.454Z,35.58
2022-10-15T14:34:39.936Z,36.04
2022-10-15T14:37:43.111Z,35.84
2022-10-15T14:40:19.024Z,36.02
2022-10-15T14:43:03.035Z,36.19
2022-10-15T14:45:37.422Z,36.55
2022-10-15T14:48:13.168Z,36.80
2022-10-15T14:50:45.626Z,37.43
2022-10-15T14:53:20.240Z,37.77
2022-10-15T14:55:53.633Z,38.51
2022-10-15T14:58:26.452Z,39.15
2022-10-15T15:01:01.618Z,39.34
2022-10-15T15:03:40.207Z,40.74
2022-10-15T15:06:11.650Z,41.36
2022-10-15T15:08:44.680Z,41.67
2022-10-15T15:11:17.590Z,42.07
2022-10-15T15:13:49.965Z,42.16
2022-10-15T15:16:21.565Z,42.88
2022-10-15T15:18:52.909Z,43.37
2022-10-15T15:21:24.608Z,43.64
2022-10-15T15:23:56.057Z,44.01
2022-10-15T15:26:27.739Z,44.11
2022-10-15T15:28:59.678Z,44.50
2022-10-15T15:31:34.042Z,44.67
2022-10-15T15:34:05.543Z,45.10
2022-10-15T15:36:37.169Z,45.37
2022-10-15T15:39:08.569Z,45.67
2022-10-15T15:41:40.152Z,46.04
2022-10-15T15:44:14.260Z,46.42
2022-10-15T15:46:50.487Z,46.58
2022-10-15T15:49:21.941Z,46.86
2022-10-15T15:51:53.491Z,46.88
2022-10-15T15:54:25.000Z,47.07
2022-10-15T15:56:56.741Z,47.25
2022-10-15T15:59:26.473Z,47.28
2022-10-15T16:01:58.080Z,47.60
2022-10-15T16:04:29.484Z,47.69
2022-10-15T16:07:01.029Z,47.83
2022-10-15T16:09:32.775Z,48.10
2022-10-15T16:12:03.201Z,48.29
2022-10-15T16:14:34.827Z,48.38
2022-10-15T16:17:04.922Z,48.28
2022-10-15T16:19:36.418Z,48.59
2022-10-15T16:22:07.985Z,48.94
2022-10-15T16:24:39.440Z,49.23
2022-10-15T16:27:11.203Z,49.56
2022-10-15T16:29:42.585Z,49.86
2022-10-15T16:32:14.152Z,49.96
2022-10-15T16:34:45.665Z,50.19
2022-10-15T16:37:17.168Z,50.53
2022-10-15T16:39:48.574Z,50.44
2022-10-15T16:42:20.001Z,50.35
2022-10-15T16:44:53.039Z,50.47
2022-10-15T16:47:24.872Z,50.64
2022-10-15T16:49:56.524Z,50.77
2022-10-15T16:52:28.514Z,50.93
2022-10-15T16:55:00.318Z,51.21
2022-10-15T16:57:32.110Z,51.52
2022-10-15T17:00:03.623Z,51.95
2022-10-15T17:02:35.424Z,52.34
2022-10-15T17:05:05.363Z,52.88
2022-10-15T17:07:36.868Z,53.64
2022-10-15T17:10:13.839Z,54.05
2022-10-15T17:12:46.667Z,54.42
2022-10-15T17:15:18.245Z,54.88
2022-10-15T17:17:49.644Z,54.94
2022-10-15T17:20:21.501Z,55.26
2022-10-15T17:22:53.162Z,55.90
2022-10-15T17:25:23.201Z,56.40
2022-10-15T17:27:55.168Z,56.59
2022-10-15T17:30:26.637Z,57.02
2022-10-15T17:32:58.208Z,56.77
2022-10-15T17:35:31.842Z,56.61
2022-10-15T17:38:03.544Z,56.59
2022-10-15T17:40:35.231Z,56.99
2022-10-15T17:43:05.222Z,57.02
2022-10-15T17:45:37.007Z,57.04
2022-10-15T17:48:09.193Z,56.96
2022-10-15T17:50:45.239Z,56.79
2022-10-15T17:53:17.157Z,56.38
2022-10-15T17:55:48.866Z,56.73
2022-10-15T17:58:20.444Z,56.75
2022-10-15T18:00:56.115Z,56.74
2022-10-15T18:03:28.864Z,56.66
2022-10-15T18:06:00.243Z,56.81
2022-10-15T18:08:31.767Z,56.86
2022-10-15T18:11:03.281Z,56.86
2022-10-15T18:13:36.129Z,57.16
2022-10-15T18:16:08.913Z,57.52
2022-10-15T18:18:40.453Z,57.37
2022-10-15T18:21:13.209Z,57.77
2022-10-15T18:23:44.765Z,57.89
2022-10-15T18:26:19.606Z,58.22
2022-10-15T18:28:53.333Z,57.77
2022-10-15T18:31:26.384Z,57.84
2022-10-15T18:33:58.381Z,57.91
2022-10-15T18:36:30.624Z,58.11
2022-10-15T18:39:02.226Z,58.23
2022-10-15T18:41:35.975Z,57.92
2022-10-15T18:44:08.144Z,57.55
2022-10-15T18:46:42.415Z,57.53
2022-10-15T18:49:14.167Z,57.54
2022-10-15T18:51:46.098Z,57.53
2022-10-15T18:54:17.737Z,57.63
2022-10-15T18:56:51.509Z,57.68
2022-10-15T18:59:23.693Z,57.83
2022-10-15T19:02:00.392Z,58.10
2022-10-15T19:04:34.441Z,58.17
2022-10-15T19:07:05.889Z,58.08
2022-10-15T19:09:37.629Z,58.05
2022-10-15T19:12:07.603Z,58.15
2022-10-15T19:14:39.353Z,58.35
2022-10-15T19:17:11.617Z,58.41
2022-10-15T19:19:48.599Z,58.26
2022-10-15T19:22:20.389Z,57.96
2022-10-15T19:24:51.922Z,57.88
2022-10-15T19:27:23.787Z,57.88
2022-10-15T19:29:56.214Z,58.09
2022-10-15T19:32:27.853Z,58.21
2022-10-15T19:35:00.253Z,58.19
2022-10-15T19:37:29.998Z,58.30
2022-10-15T19:40:01.565Z,58.36
2022-10-15T19:42:33.205Z,58.17
2022-10-15T19:45:03.331Z,58.42
2022-10-15T19:47:34.804Z,58.56
2022-10-15T19:50:08.697Z,58.47
2022-10-15T19:52:40.121Z,58.62
2022-10-15T19:55:12.386Z,58.82
2022-10-15T19:57:43.935Z,59.15
2022-10-15T20:00:17.401Z,59.42
2022-10-15T20:02:49.171Z,59.45
2022-10-15T20:05:20.887Z,59.96
2022-10-15T20:07:52.563Z,60.17
2022-10-15T20:10:25.719Z,60.17
2022-10-15T20:12:58.250Z,60.10
2022-10-15T20:15:29.884Z,60.34
2022-10-15T20:18:01.407Z,60.32
2022-10-15T20:20:32.901Z,60.55
2022-10-15T20:23:04.469Z,60.64
2022-10-15T20:25:37.402Z,61.04
2022-10-15T20:28:09.064Z,60.95
2022-10-15T20:30:41.077Z,61.09
2022-10-15T20:33:13.015Z,61.45
2022-10-15T20:35:44.581Z,62.54
2022-10-15T20:38:16.137Z,62.35
2022-10-15T20:40:47.645Z,62.70
2022-10-15T20:43:20.131Z,62.89
2022-10-15T20:45:51.666Z,62.79
2022-10-15T20:48:24.975Z,62.74
2022-10-15T20:50:56.891Z,62.72
2022-10-15T20:53:28.342Z,62.95
2022-10-15T20:56:01.613Z,63.30
2022-10-15T20:58:33.017Z,63.08
2022-10-15T21:01:04.673Z,63.15
2022-10-15T21:03:36.031Z,63.20
2022-10-15T21:06:07.688Z,63.31
2022-10-15T21:08:39.089Z,63.12
2022-10-15T21:11:10.826Z,63.14
2022-10-15T21:13:40.621Z,63.20
2022-10-15T21:16:12.422Z,63.35
2022-10-15T21:18:43.834Z,63.61
2022-10-15T21:21:16.016Z,63.62
2022-10-15T21:23:47.720Z,64.15
2022-10-15T21:26:17.936Z,64.20
2022-10-15T21:28:49.461Z,64.49
2022-10-15T21:31:19.452Z,64.02
2022-10-15T21:33:50.908Z,64.02
2022-10-15T21:36:24.653Z,64.07
2022-10-15T21:38:57.003Z,64.23
2022-10-15T21:41:28.723Z,64.21
2022-10-15T21:43:58.689Z,64.10
2022-10-15T21:46:31.677Z,64.11
2022-10-15T21:49:04.282Z,64.21
2022-10-15T21:51:36.149Z,64.10
2022-10-15T21:54:07.857Z,64.18
2022-10-15T21:56:37.743Z,64.07
2022-10-15T21:59:09.470Z,64.37
2022-10-15T22:01:39.373Z,64.90
2022-10-15T22:04:11.572Z,65.04
2022-10-15T22:06:43.245Z,64.92
2022-10-15T22:09:14.668Z,65.21
2022-10-15T22:11:46.386Z,65.47
2022-10-15T22:14:17.928Z,65.77
2022-10-15T22:16:49.400Z,66.19
2022-10-15T22:19:20.876Z,66.37
2022-10-15T22:21:52.421Z,66.26
2022-10-15T22:24:23.917Z,66.15
2022-10-15T22:26:55.907Z,66.20
2022-10-15T22:29:31.788Z,65.92
2022-10-15T22:32:06.770Z,65.91
2022-10-15T22:34:38.431Z,65.69
2022-10-15T22:37:08.496Z,65.94
2022-10-15T22:39:40.834Z,66.23
2022-10-15T22:42:12.327Z,66.06
2022-10-15T22:44:43.757Z,66.30
2022-10-15T22:47:15.268Z,66.34
2022-10-15T22:49:46.757Z,66.45
2022-10-15T22:52:18.574Z,66.52
2022-10-15T22:54:50.019Z,66.75
2022-10-15T22:57:21.597Z,67.38
2022-10-15T22:59:57.183Z,67.63
2022-10-15T23:02:31.116Z,67.71
2022-10-15T23:05:02.572Z,67.85
2022-10-15T23:07:33.985Z,67.72
2022-10-15T23:10:05.536Z,67.78
2022-10-15T23:12:38.800Z,68.02
2022-10-15T23:15:12.121Z,68.00
2022-10-15T23:17:43.564Z,67.97
2022-10-15T23:20:15.835Z,68.34
2022-10-15T23:22:47.721Z,68.52
2022-10-15T23:25:19.253Z,68.60
2022-10-15T23:27:50.788Z,68.86
2022-10-15T23:30:25.077Z,68.75
2022-10-15T23:32:56.883Z,68.91
2022-10-15T23:35:28.431Z,69.89
2022-10-15T23:37:58.515Z,70.42
2022-10-15T23:40:29.914Z,71.05
2022-10-15T23:43:01.787Z,71.02
2022-10-15T23:45:34.837Z,70.80
2022-10-15T23:48:08.823Z,71.00
2022-10-15T23:50:40.841Z,70.97
2022-10-15T23:53:12.565Z,71.04
2022-10-15T23:55:42.265Z,71.24
2022-10-15T23:58:13.926Z,71.76
